Time;durP1;ratioP1;P1;durP2;ratioP2;P2;SDS_P1;SDS_P2;PMS_P1;PMS_P2;Temp;Humidity;BMP_temperature;BMP_pressure;BME280_temperature;BME280_humidity;BME280_pressure;Samples;Min_cycle;Max_cycle;Signal;HPM_P1;HPM_P2
2023/07/24 00:01:06;;;;;;;4.55;2.38;;;;;;;18.99;100.00;100292.72;5096593;28;20043;-57
2023/07/24 00:03:32;;;;;;;5.82;2.65;;;;;;;18.92;100.00;100285.38;5092081;28;20123;-57
2023/07/24 00:05:59;;;;;;;4.25;2.40;;;;;;;18.93;100.00;100281.69;5085755;28;20123;-57
2023/07/24 00:08:26;;;;;;;6.60;3.20;;;;;;;18.96;100.00;100278.75;5086738;28;20109;-57
2023/07/24 00:10:52;;;;;;;6.88;2.63;;;;;;;18.99;100.00;100275.81;5084483;28;20085;-57
2023/07/24 00:13:19;;;;;;;4.38;2.22;;;;;;;19.00;100.00;100272.16;5089047;28;20139;-57
2023/07/24 00:15:46;;;;;;;5.15;2.08;;;;;;;18.89;100.00;100271.25;5073761;28;20361;-57
2023/07/24 00:18:12;;;;;;;4.25;2.30;;;;;;;18.87;100.00;100273.22;5085920;28;20679;-57
2023/07/24 00:20:39;;;;;;;5.07;2.47;;;;;;;18.90;100.00;100266.75;5071755;28;20139;-57
2023/07/24 00:23:05;;;;;;;3.88;2.22;;;;;;;18.92;100.00;100254.06;5077361;28;20058;-57
2023/07/24 00:25:32;;;;;;;3.63;2.10;;;;;;;19.00;100.00;100261.44;5079936;28;20112;-57
2023/07/24 00:27:58;;;;;;;5.32;2.63;;;;;;;18.93;100.00;100260.28;5084064;28;20048;-57
2023/07/24 00:30:25;;;;;;;4.70;2.30;;;;;;;18.92;100.00;100253.25;5075474;28;20039;-57
2023/07/24 00:32:51;;;;;;;3.60;2.35;;;;;;;18.84;100.00;100256.59;5078266;28;20051;-57
2023/07/24 00:35:18;;;;;;;4.50;2.47;;;;;;;18.86;100.00;100254.63;5082716;28;20044;-57
2023/07/24 00:37:44;;;;;;;4.78;2.58;;;;;;;18.83;100.00;100253.06;5084107;28;20138;-57
2023/07/24 00:40:11;;;;;;;5.28;2.80;;;;;;;18.85;100.00;100251.09;5086384;28;20368;-57
2023/07/24 00:42:38;;;;;;;5.45;2.38;;;;;;;18.81;100.00;100246.94;5080202;28;20596;-57
2023/07/24 00:45:04;;;;;;;7.85;3.03;;;;;;;18.74;100.00;100240.47;5079394;28;20052;-57
2023/07/24 00:47:31;;;;;;;5.68;2.80;;;;;;;18.66;100.00;100248.31;5085164;28;20079;-57
2023/07/24 00:49:58;;;;;;;4.15;2.50;;;;;;;18.56;100.00;100240.25;5088280;28;20059;-57
2023/07/24 00:52:25;;;;;;;7.53;2.00;;;;;;;18.47;100.00;100238.34;5089268;28;20063;-58
2023/07/24 00:54:53;;;;;;;4.57;2.65;;;;;;;18.38;100.00;100241.84;5082909;28;20062;-57
2023/07/24 00:57:20;;;;;;;6.15;3.05;;;;;;;18.28;100.00;100245.31;5088600;28;20127;-57
2023/07/24 00:59:46;;;;;;;5.22;3.28;;;;;;;18.26;100.00;100235.72;5080242;28;20562;-57
2023/07/24 01:02:13;;;;;;;3.25;1.92;;;;;;;18.31;100.00;100228.16;5087948;28;20123;-57
2023/07/24 01:04:39;;;;;;;6.55;2.60;;;;;;;18.26;100.00;100230.38;5086639;28;20063;-57
2023/07/24 01:07:06;;;;;;;6.32;3.78;;;;;;;18.32;100.00;100235.19;5079597;28;20045;-58
2023/07/24 01:09:33;;;;;;;6.25;2.38;;;;;;;18.42;100.00;100219.19;5077942;28;20063;-57
2023/07/24 01:12:03;;;;;;;4.25;2.30;;;;;;;18.52;100.00;100210.22;5089466;28;20131;-57
2023/07/24 01:14:41;;;;;;;6.10;2.53;;;;;;;18.61;100.00;100213.09;5080805;28;20131;-57
2023/07/24 01:17:09;;;;;;;5.47;2.15;;;;;;;18.61;100.00;100215.75;5088506;28;20554;-57
2023/07/24 01:19:41;;;;;;;4.78;1.83;;;;;;;18.69;100.00;100226.63;5086511;28;20062;-57
2023/07/24 01:22:15;;;;;;;5.90;2.40;;;;;;;18.70;100.00;100217.59;5085778;28;20597;-57
2023/07/24 01:25:03;;;;;;;6.30;2.58;;;;;;;18.76;100.00;100217.06;5079792;28;20044;-57
2023/07/24 01:27:30;;;;;;;2.58;1.70;;;;;;;18.86;100.00;100212.66;5078179;28;20044;-57
2023/07/24 01:29:56;;;;;;;4.90;1.75;;;;;;;18.86;100.00;100207.28;5077327;28;20047;-57
2023/07/24 01:32:24;;;;;;;3.05;1.90;;;;;;;18.85;100.00;100216.28;5083154;28;20054;-57
2023/07/24 01:34:52;;;;;;;4.18;2.47;;;;;;;18.85;100.00;100220.81;5088834;28;20062;-57
2023/07/24 01:37:20;;;;;;;5.35;1.80;;;;;;;18.84;100.00;100208.41;5090516;28;20052;-57
2023/07/24 01:39:47;;;;;;;5.45;2.10;;;;;;;18.82;100.00;100216.53;5086933;28;20407;-57
2023/07/24 01:42:14;;;;;;;3.65;2.15;;;;;;;18.77;100.00;100208.06;5082311;28;20092;-57
2023/07/24 01:44:41;;;;;;;3.15;1.65;;;;;;;18.72;100.00;100212.97;5076976;28;20655;-57
2023/07/24 01:47:07;;;;;;;8.45;2.97;;;;;;;18.74;100.00;100207.50;5088845;28;20055;-57
2023/07/24 01:49:34;;;;;;;4.18;2.38;;;;;;;18.70;100.00;100196.19;5087863;28;20062;-57
2023/07/24 01:52:01;;;;;;;4.65;2.20;;;;;;;18.69;100.00;100194.50;5090254;28;20496;-57
2023/07/24 01:54:28;;;;;;;8.20;2.08;;;;;;;18.67;100.00;100191.13;5088367;28;20528;-57
2023/07/24 01:56:54;;;;;;;3.40;2.28;;;;;;;18.67;100.00;100196.50;5088727;28;20146;-57
2023/07/24 01:59:21;;;;;;;4.32;1.95;;;;;;;18.67;100.00;100196.50;5087381;28;20381;-57
2023/07/24 02:01:47;;;;;;;4.10;2.38;;;;;;;18.70;100.00;100196.19;5088659;28;20674;-57
2023/07/24 02:04:14;;;;;;;3.75;2.22;;;;;;;18.69;100.00;100195.34;5083714;28;20051;-57
2023/07/24 02:06:40;;;;;;;4.47;2.03;;;;;;;18.73;100.00;100190.56;5088688;28;20078;-57
2023/07/24 02:09:07;;;;;;;4.60;2.33;;;;;;;18.76;100.00;100179.59;5083046;28;20070;-57
2023/07/24 02:11:34;;;;;;;4.35;2.08;;;;;;;18.76;100.00;100182.25;5086801;28;20160;-57
2023/07/24 02:14:00;;;;;;;5.10;2.15;;;;;;;18.73;100.00;100182.53;5087860;28;20441;-57
2023/07/24 02:16:27;;;;;;;3.42;2.13;;;;;;;18.75;100.00;100183.28;5082529;28;20036;-57
2023/07/24 02:18:54;;;;;;;3.88;2.13;;;;;;;18.75;100.00;100179.72;5079831;28;20472;-57
2023/07/24 02:21:21;;;;;;;4.57;2.92;;;;;;;18.75;100.00;100187.75;5087739;28;20083;-57
2023/07/24 02:23:47;;;;;;;3.17;1.92;;;;;;;18.80;100.00;100186.38;5088402;28;20608;-57
2023/07/24 02:26:14;;;;;;;5.05;2.20;;;;;;;18.84;100.00;100187.81;5087080;28;20044;-57
2023/07/24 02:28:40;;;;;;;5.97;2.85;;;;;;;18.82;100.00;100184.41;5088448;28;20406;-57
2023/07/24 02:31:07;;;;;;;2.92;1.70;;;;;;;18.83;100.00;100191.50;5087526;28;20146;-57
2023/07/24 02:33:33;;;;;;;3.55;1.92;;;;;;;18.79;100.00;100190.03;5088651;28;20056;-57
2023/07/24 02:36:00;;;;;;;3.83;1.90;;;;;;;18.83;100.00;100195.94;5092360;28;20035;-57
2023/07/24 02:38:27;;;;;;;3.47;1.58;;;;;;;18.85;100.00;100194.03;5086952;28;20071;-57
2023/07/24 02:40:53;;;;;;;4.10;1.95;;;;;;;18.81;100.00;100192.56;5082346;28;20059;-57
2023/07/24 02:43:20;;;;;;;6.75;1.80;;;;;;;18.85;100.00;100202.06;5084105;28;20044;-57
2023/07/24 02:45:46;;;;;;;5.38;1.80;;;;;;;18.85;100.00;100200.22;5087333;28;20044;-57
2023/07/24 02:48:13;;;;;;;3.80;2.05;;;;;;;18.83;100.00;100207.56;5088333;28;20270;-57
2023/07/24 02:50:40;;;;;;;6.43;2.22;;;;;;;18.83;100.00;100210.25;5092886;28;20051;-57
2023/07/24 02:53:06;;;;;;;4.47;2.00;;;;;;;18.85;100.00;100208.25;5084851;28;20145;-57
2023/07/24 02:55:33;;;;;;;3.15;1.70;;;;;;;18.87;100.00;100208.13;5086470;28;20574;-57
2023/07/24 02:57:59;;;;;;;8.38;1.80;;;;;;;18.90;100.00;100207.84;5086505;28;20055;-57
2023/07/24 03:00:26;;;;;;;6.00;1.80;;;;;;;18.91;100.00;100219.41;5089884;28;20126;-57
2023/07/24 03:02:53;;;;;;;4.88;1.55;;;;;;;18.94;100.00;100214.63;5092988;28;20043;-57
2023/07/24 03:05:19;;;;;;;4.40;1.98;;;;;;;18.91;100.00;100220.25;5092923;28;20052;-57
2023/07/24 03:07:46;;;;;;;4.50;1.73;;;;;;;18.92;100.00;100215.75;5101429;28;20047;-57
2023/07/24 03:10:12;;;;;;;3.97;1.40;;;;;;;18.98;100.00;100215.19;5094381;28;20407;-57
2023/07/24 03:12:39;;;;;;;3.42;2.08;;;;;;;19.04;100.00;100230.69;5087890;28;20040;-57
2023/07/24 03:15:06;;;;;;;2.65;1.25;;;;;;;19.08;100.00;100232.13;5087899;28;20048;-57
2023/07/24 03:17:32;;;;;;;3.20;1.75;;;;;;;19.12;100.00;100217.47;5101706;28;20054;-57
2023/07/24 03:19:59;;;;;;;3.35;1.50;;;;;;;19.07;100.00;100225.06;5097116;28;20432;-57
2023/07/24 03:22:26;;;;;;;3.13;1.50;;;;;;;19.15;100.00;100227.06;5090029;28;20047;-57
2023/07/24 03:24:52;;;;;;;1.95;1.15;;;;;;;19.17;100.00;100220.56;5093089;28;20054;-57
2023/07/24 03:27:19;;;;;;;3.83;1.02;;;;;;;19.15;100.00;100227.91;5089288;28;20124;-57
2023/07/24 03:29:45;;;;;;;3.85;1.20;;;;;;;19.16;100.00;100223.38;5087823;28;20051;-57
2023/07/24 03:32:12;;;;;;;3.67;1.10;;;;;;;19.16;100.00;100232.28;5089272;28;20044;-57
2023/07/24 03:34:39;;;;;;;2.15;1.10;;;;;;;19.15;100.00;100225.22;5088148;28;20078;-57
2023/07/24 03:37:05;;;;;;;5.55;1.30;;;;;;;19.18;100.00;100222.28;5086338;28;20359;-57
2023/07/24 03:39:32;;;;;;;2.65;1.15;;;;;;;19.19;100.00;100212.41;5092922;28;20120;-57
2023/07/24 03:41:58;;;;;;;2.05;1.02;;;;;;;19.20;100.00;100217.63;5086836;28;20383;-57
2023/07/24 03:44:25;;;;;;;4.10;1.23;;;;;;;19.17;100.00;100228.63;5073966;28;20388;-57
2023/07/24 03:46:51;;;;;;;2.10;1.20;;;;;;;19.21;100.00;100222.00;5084096;28;20087;-57
2023/07/24 03:49:18;;;;;;;3.70;1.83;;;;;;;19.24;100.00;100223.53;5089256;28;20144;-57
2023/07/24 03:51:44;;;;;;;3.25;1.30;;;;;;;19.27;100.00;100231.31;5088935;28;20144;-57
2023/07/24 03:54:11;;;;;;;2.90;1.30;;;;;;;19.28;100.00;100230.34;5093993;28;20048;-57
2023/07/24 03:56:37;;;;;;;2.20;1.00;;;;;;;19.26;100.00;100219.75;5079220;28;20532;-57
2023/07/24 03:59:05;;;;;;;3.50;1.13;;;;;;;19.28;100.00;100222.28;5091691;28;20058;-57
2023/07/24 04:01:32;;;;;;;2.88;1.20;;;;;;;19.33;100.00;100220.03;5087632;28;20044;-57
2023/07/24 04:03:59;;;;;;;1.50;1.00;;;;;;;19.39;100.00;100213.28;5092277;28;20071;-57
2023/07/24 04:06:25;;;;;;;3.10;0.75;;;;;;;19.41;100.00;100216.66;5087958;28;20044;-57
2023/07/24 04:08:52;;;;;;;2.33;0.77;;;;;;;19.37;100.00;100223.28;5090662;28;20047;-57
2023/07/24 04:11:18;;;;;;;3.35;0.73;;;;;;;19.29;100.00;100223.13;5090940;28;20059;-57
2023/07/24 04:13:45;;;;;;;2.72;1.00;;;;;;;19.29;100.00;100215.97;5089385;28;20524;-57
2023/07/24 04:16:11;;;;;;;1.98;1.00;;;;;;;19.35;100.00;100230.63;5084237;28;20140;-57
2023/07/24 04:18:38;;;;;;;3.83;0.90;;;;;;;19.39;100.00;100226.69;5090215;28;20048;-57
2023/07/24 04:21:04;;;;;;;2.45;0.93;;;;;;;19.44;100.00;100225.28;5087919;28;20063;-57
2023/07/24 04:23:31;;;;;;;3.25;1.20;;;;;;;19.50;100.00;100231.91;5087859;28;20080;-57
2023/07/24 04:25:57;;;;;;;1.95;0.90;;;;;;;19.52;100.00;100229.06;5085591;28;20094;-57
2023/07/24 04:28:24;;;;;;;2.40;0.95;;;;;;;19.56;100.00;100228.66;5083201;28;20050;-57
2023/07/24 04:30:50;;;;;;;3.53;0.75;;;;;;;19.61;100.00;100223.72;5085162;28;20497;-57
2023/07/24 04:33:17;;;;;;;2.05;0.98;;;;;;;19.71;100.00;100222.88;5080324;28;20821;-57
2023/07/24 04:35:47;;;;;;;2.35;0.88;;;;;;;19.70;100.00;100222.03;5086188;28;20044;-57
2023/07/24 04:38:14;;;;;;;2.28;0.90;;;;;;;19.72;100.00;100219.22;5083478;28;20044;-57
2023/07/24 04:40:44;;;;;;;1.92;1.00;;;;;;;19.76;100.00;100220.63;5089835;28;20130;-57
2023/07/24 04:43:11;;;;;;;1.88;0.90;;;;;;;19.75;100.00;100209.06;5086633;28;20075;-57
2023/07/24 04:45:38;;;;;;;1.40;0.70;;;;;;;19.72;100.00;100213.84;5099000;28;20595;-57
2023/07/24 04:48:05;;;;;;;2.53;1.58;;;;;;;19.75;100.00;100209.06;5089527;28;20083;-57
2023/07/24 04:50:32;;;;;;;2.55;0.95;;;;;;;19.79;100.00;100215.81;5088281;28;20064;-57
2023/07/24 04:52:59;;;;;;;2.33;1.17;;;;;;;19.80;100.00;100205.97;5088489;28;20113;-57
2023/07/24 04:55:25;;;;;;;2.00;0.90;;;;;;;19.83;100.00;100200.31;5089169;28;20040;-57
2023/07/24 04:57:52;;;;;;;4.05;0.95;;;;;;;19.71;100.00;100201.41;5089728;28;20123;-57
2023/07/24 05:00:18;;;;;;;1.60;0.98;;;;;;;19.75;100.00;100200.16;5087007;28;20120;-57
2023/07/24 05:02:45;;;;;;;1.63;1.10;;;;;;;19.83;100.00;100200.31;5090163;28;20052;-57
2023/07/24 05:05:11;;;;;;;2.05;0.70;;;;;;;19.79;100.00;100193.53;5086375;28;20488;-57
2023/07/24 05:07:38;;;;;;;1.90;0.95;;;;;;;19.82;100.00;100193.25;5089705;28;20048;-57
2023/07/24 05:10:05;;;;;;;1.83;0.93;;;;;;;19.88;100.00;100192.69;5086559;28;20135;-57
2023/07/24 05:12:32;;;;;;;2.42;1.02;;;;;;;19.79;100.00;100188.19;5089709;28;20520;-57
2023/07/24 05:14:58;;;;;;;2.08;0.70;;;;;;;19.74;100.00;100179.69;5086827;28;20079;-57
2023/07/24 05:17:25;;;;;;;4.32;1.33;;;;;;;19.76;100.00;100175.94;5089172;28;20403;-57
2023/07/24 05:19:51;;;;;;;2.80;1.50;;;;;;;19.74;100.00;100187.72;5089264;28;20047;-57
2023/07/24 05:22:18;;;;;;;1.98;0.85;;;;;;;19.87;100.00;100185.63;5089715;28;20040;-57
2023/07/24 05:24:44;;;;;;;2.00;1.10;;;;;;;19.88;100.00;100179.28;5088834;28;20132;-57
2023/07/24 05:27:12;;;;;;;1.35;0.70;;;;;;;19.96;100.00;100174.03;5088221;28;20522;-57
2023/07/24 05:29:38;;;;;;;2.25;0.77;;;;;;;19.97;100.00;100175.72;5088693;28;20119;-57
2023/07/24 05:32:05;;;;;;;3.33;1.23;;;;;;;19.91;100.00;100165.59;5084691;28;20055;-59
2023/07/24 05:34:32;;;;;;;3.47;0.73;;;;;;;19.92;100.00;100182.50;5088061;28;20054;-57
2023/07/24 05:36:58;;;;;;;1.85;0.90;;;;;;;19.95;100.00;100175.00;5088659;28;20044;-57
2023/07/24 05:39:25;;;;;;;4.50;1.00;;;;;;;19.92;100.00;100172.63;5089314;28;20051;-57
2023/07/24 05:41:51;;;;;;;1.45;0.90;;;;;;;20.07;100.00;100175.69;5087492;28;20563;-58
2023/07/24 05:44:18;;;;;;;2.08;1.08;;;;;;;20.10;100.00;100169.19;5088794;28;20060;-58
2023/07/24 05:46:44;;;;;;;3.38;1.00;;;;;;;20.18;100.00;100158.59;5082423;28;20057;-57
2023/07/24 05:49:11;;;;;;;2.85;1.15;;;;;;;20.22;100.00;100168.03;5084243;28;20201;-57
2023/07/24 05:51:37;;;;;;;2.83;1.25;;;;;;;20.29;100.00;100147.66;5088830;28;20142;-57
2023/07/24 05:54:04;;;;;;;2.97;1.17;;;;;;;20.40;100.00;100154.69;5089137;28;20086;-57
2023/07/24 05:56:30;;;;;;;4.13;0.95;;;;;;;20.50;100.00;100160.00;5089230;28;20071;-57
2023/07/24 05:58:57;;;;;;;2.72;1.25;;;;;;;20.49;100.00;100155.63;5087761;28;20123;-57
2023/07/24 06:01:24;;;;;;;4.18;1.33;;;;;;;20.47;100.00;100144.22;5088355;28;20134;-57
2023/07/24 06:03:50;;;;;;;2.22;1.25;;;;;;;20.53;100.00;100140.91;5088504;28;20080;-57
2023/07/24 06:06:17;;;;;;;1.58;0.90;;;;;;;20.60;100.00;100139.31;5088149;28;20121;-57
2023/07/24 06:08:44;;;;;;;5.97;1.20;;;;;;;20.63;100.00;100132.78;5088625;28;20131;-58
2023/07/24 06:11:10;;;;;;;2.50;1.27;;;;;;;20.64;100.00;100129.16;5087973;28;20044;-58
2023/07/24 06:13:37;;;;;;;2.90;1.10;;;;;;;20.66;100.00;100138.75;5086692;28;20071;-57
2023/07/24 06:16:03;;;;;;;3.22;1.65;;;;;;;20.72;100.00;100138.13;5087036;28;20105;-57
2023/07/24 06:18:30;;;;;;;2.20;1.38;;;;;;;20.82;100.00;100132.72;5088145;28;20154;-58
2023/07/24 06:20:57;;;;;;;2.10;1.48;;;;;;;20.89;100.00;100128.44;5087774;28;20040;-58
2023/07/24 06:23:23;;;;;;;3.03;1.65;;;;;;;20.94;100.00;100127.97;5087955;28;20058;-58
2023/07/24 06:25:51;;;;;;;2.45;1.33;;;;;;;21.15;100.00;100124.13;5087463;28;20075;-59
2023/07/24 06:28:18;;;;;;;2.70;1.70;;;;;;;21.42;100.00;100118.66;5087753;28;20076;-58
2023/07/24 06:30:44;;;;;;;3.22;1.75;;;;;;;21.53;100.00;100122.13;5085874;28;20109;-58
2023/07/24 06:33:11;;;;;;;3.03;1.50;;;;;;;21.81;100.00;100123.69;5089130;28;20052;-58
2023/07/24 06:35:38;;;;;;;3.08;1.55;;;;;;;21.89;100.00;100113.97;5088224;28;20371;-58
2023/07/24 06:38:04;;;;;;;4.13;1.83;;;;;;;21.91;100.00;100109.28;5093501;28;20083;-58
2023/07/24 06:40:31;;;;;;;2.75;2.05;;;;;;;21.63;100.00;100118.34;5088396;28;20052;-58
2023/07/24 06:42:57;;;;;;;3.03;1.67;;;;;;;21.55;100.00;100110.22;5089865;28;20067;-58
2023/07/24 06:45:24;;;;;;;4.45;1.70;;;;;;;21.64;100.00;100111.13;5097344;28;20058;-58
2023/07/24 06:47:51;;;;;;;2.80;1.85;;;;;;;21.69;100.00;100108.78;5097138;28;20048;-58
2023/07/24 06:50:17;;;;;;;2.95;1.75;;;;;;;21.71;100.00;100101.44;5087603;28;20066;-57
2023/07/24 06:52:44;;;;;;;2.30;1.42;;;;;;;21.71;100.00;100079.91;5089936;28;20043;-57
2023/07/24 06:55:10;;;;;;;2.25;1.63;;;;;;;21.74;100.00;100090.38;5087723;28;20055;-58
2023/07/24 06:57:36;;;;;;;2.70;1.73;;;;;;;21.62;100.00;100092.44;5088371;28;20056;-56
2023/07/24 07:00:03;;;;;;;2.78;1.65;;;;;;;21.66;100.00;100089.44;5090215;28;20054;-56
2023/07/24 07:02:30;;;;;;;2.50;1.40;;;;;;;21.87;100.00;100092.59;5092079;28;20130;-58
2023/07/24 07:04:56;;;;;;;4.15;1.27;;;;;;;21.71;100.00;100088.00;5087686;28;20052;-58
2023/07/24 07:07:23;;;;;;;3.15;1.52;;;;;;;21.90;100.00;100078.00;5085744;28;20123;-57
2023/07/24 07:09:49;;;;;;;3.83;1.60;;;;;;;21.87;100.00;100079.16;5085927;28;20062;-58
2023/07/24 07:12:16;;;;;;;2.38;1.38;;;;;;;22.02;100.00;100071.34;5086602;28;20048;-57
2023/07/24 07:14:44;;;;;;;2.38;1.55;;;;;;;22.16;100.00;100075.25;5086453;28;20043;-58
2023/07/24 07:17:10;;;;;;;4.05;1.30;;;;;;;22.15;100.00;100071.75;5086043;28;20054;-58
2023/07/24 07:19:37;;;;;;;4.53;1.42;;;;;;;22.28;100.00;100070.44;5086341;28;20407;-58
2023/07/24 07:22:04;;;;;;;2.03;1.10;;;;;;;22.26;100.00;100064.38;5086115;28;20048;-58
2023/07/24 07:24:30;;;;;;;2.13;1.17;;;;;;;22.18;100.00;100071.41;5085989;28;20075;-57
2023/07/24 07:26:57;;;;;;;2.15;1.35;;;;;;;22.31;100.00;100071.00;5086130;28;20113;-58
2023/07/24 07:29:24;;;;;;;3.20;1.85;;;;;;;22.45;100.00;100074.91;5088220;28;20048;-58
2023/07/24 07:31:50;;;;;;;2.40;1.40;;;;;;;22.74;100.00;100076.31;5087980;28;20047;-58
2023/07/24 07:34:17;;;;;;;2.85;1.55;;;;;;;22.77;100.00;100081.38;5085950;28;20052;-58
2023/07/24 07:36:43;;;;;;;4.32;1.98;;;;;;;22.71;100.00;100072.09;5086597;28;20058;-58
2023/07/24 07:39:10;;;;;;;2.72;1.60;;;;;;;22.80;100.00;100085.59;5085418;28;20040;-57
2023/07/24 07:41:36;;;;;;;3.90;1.13;;;;;;;23.04;100.00;100079.38;5086636;28;20139;-59
2023/07/24 07:44:03;;;;;;;3.95;1.40;;;;;;;22.91;100.00;100083.41;5086530;28;20134;-58
2023/07/24 07:46:30;;;;;;;1.90;1.10;;;;;;;23.05;100.00;100081.09;5086257;28;20048;-58
2023/07/24 07:48:57;;;;;;;2.65;1.70;;;;;;;23.45;100.00;100079.41;5084700;28;20040;-57
2023/07/24 07:51:25;;;;;;;2.75;1.30;;;;;;;23.66;100.00;100069.94;5086199;28;20055;-58
2023/07/24 07:53:52;;;;;;;3.25;1.55;;;;;;;23.81;100.00;100068.22;5086146;28;20526;-58
2023/07/24 07:56:19;;;;;;;2.80;1.48;;;;;;;23.86;100.00;100063.16;5086339;28;20131;-58
2023/07/24 07:58:45;;;;;;;3.05;1.60;;;;;;;24.17;100.00;100056.97;5080319;28;20048;-58
2023/07/24 08:01:12;;;;;;;2.33;1.23;;;;;;;23.77;100.00;100056.09;5087022;28;20539;-58
2023/07/24 08:03:38;;;;;;;2.97;1.58;;;;;;;24.20;100.00;100056.63;5090099;28;20059;-58
2023/07/24 08:06:06;;;;;;;2.50;1.23;;;;;;;24.34;100.00;100046.94;5089711;28;20283;-58
2023/07/24 08:08:32;;;;;;;6.47;1.42;;;;;;;24.66;100.00;100045.94;5089961;28;20040;-59
2023/07/24 08:11:04;;;;;;;3.22;1.42;;;;;;;24.30;100.00;100051.84;5089516;28;20152;-57
2023/07/24 08:13:30;;;;;;;2.53;1.52;;;;;;;24.36;100.00;100064.66;5089534;28;20448;-58
2023/07/24 08:15:57;;;;;;;3.97;1.30;;;;;;;23.95;100.00;100064.00;5089184;28;20044;-58
2023/07/24 08:18:24;;;;;;;2.60;1.45;;;;;;;24.06;100.00;100062.75;5089708;28;20408;-58
2023/07/24 08:20:50;;;;;;;2.15;1.20;;;;;;;24.31;100.00;100058.94;5089391;28;20044;-58
2023/07/24 08:23:17;;;;;;;2.22;1.20;;;;;;;24.15;100.00;100037.44;5089639;28;20092;-58
2023/07/24 08:25:56;;;;;;;2.50;1.42;;;;;;;24.43;100.00;100035.09;5089186;28;20079;-58
2023/07/24 08:28:22;;;;;;;2.58;1.45;;;;;;;24.49;100.00;100038.94;5089746;28;20040;-58
2023/07/24 08:30:59;;;;;;;10.07;1.63;;;;;;;24.14;100.00;100035.72;5089943;28;20526;-57
2023/07/24 08:33:28;;;;;;;2.33;1.35;;;;;;;23.99;100.00;100031.06;5090209;28;20536;-58
2023/07/24 08:36:03;;;;;;;2.35;1.40;;;;;;;23.98;100.00;100026.72;5089049;28;20058;-58
2023/07/24 08:38:30;;;;;;;3.22;1.23;;;;;;;24.13;100.00;100017.88;5089096;28;20108;-57
2023/07/24 08:41:05;;;;;;;2.22;1.30;;;;;;;24.07;100.00;100007.78;5089252;28;20048;-57
2023/07/24 08:43:33;;;;;;;2.45;1.50;;;;;;;24.07;100.00;100010.47;5089291;28;20136;-58
2023/07/24 08:46:00;;;;;;;4.88;1.33;;;;;;;24.10;100.00;100007.44;5088756;28;20044;-57
2023/07/24 08:48:35;;;;;;;3.80;1.38;;;;;;;24.47;100.00;100013.94;5088876;28;20338;-58
2023/07/24 08:51:10;;;;;;;2.38;1.10;;;;;;;24.65;100.00;100011.84;5087935;28;20048;-58
2023/07/24 08:53:41;;;;;;;2.55;1.40;;;;;;;24.61;100.00;100004.28;5087966;28;20086;-58
2023/07/24 08:56:12;;;;;;;2.63;1.10;;;;;;;24.71;100.00;100000.31;5087588;28;20048;-57
2023/07/24 08:58:41;;;;;;;2.63;1.42;;;;;;;24.85;100.00;99995.16;5079144;28;20072;-57
2023/07/24 09:01:08;;;;;;;6.60;1.90;;;;;;;24.83;100.00;99991.78;5084699;28;20135;-57
2023/07/24 09:03:35;;;;;;;2.30;1.10;;;;;;;24.63;100.00;99986.84;5067979;28;20098;-57
2023/07/24 09:06:03;;;;;;;4.85;1.30;;;;;;;24.77;100.00;99987.13;5081938;28;20048;-58
2023/07/24 09:08:32;;;;;;;3.17;1.85;;;;;;;24.92;100.00;99988.00;5087327;28;20048;-56
2023/07/24 09:10:59;;;;;;;3.03;1.40;;;;;;;25.04;100.00;99978.44;5087203;28;20289;-57
2023/07/24 09:13:26;;;;;;;2.78;1.35;;;;;;;24.91;100.00;99978.19;5087707;28;20131;-56
2023/07/24 09:15:53;;;;;;;3.15;1.92;;;;;;;24.74;100.00;99978.31;5086871;28;20048;-58
2023/07/24 09:18:20;;;;;;;5.05;1.38;;;;;;;25.06;100.00;99975.53;5088018;28;20143;-57
2023/07/24 09:20:47;;;;;;;3.70;1.98;;;;;;;25.26;100.00;99975.84;5088030;28;20054;-57
2023/07/24 09:23:15;;;;;;;3.25;1.17;;;;;;;25.29;100.00;99975.53;5088439;28;20147;-57
2023/07/24 09:25:45;;;;;;;;;;;;;;;25.56;100.00;99965.91;5087557;28;20310;-56
2023/07/24 09:28:16;;;;;;;3.00;1.60;;;;;;;24.91;100.00;99983.59;5087961;28;19973;-58
2023/07/24 09:30:54;;;;;;;3.30;1.42;;;;;;;25.15;100.00;99987.94;5086904;28;20561;-58
2023/07/24 09:33:35;;;;;;;3.78;2.05;;;;;;;25.05;100.00;99985.50;5087026;28;20044;-58
2023/07/24 09:36:02;;;;;;;;;;;;;;;25.20;100.00;99988.22;5087136;28;20051;-58
2023/07/24 09:38:29;;;;;;;2.67;1.48;;;;;;;25.58;100.00;99987.34;5087230;28;20006;-58
2023/07/24 09:40:56;;;;;;;2.53;1.52;;;;;;;25.49;100.00;99975.81;5086007;28;20048;-58
2023/07/24 09:43:26;;;;;;;3.78;1.45;;;;;;;26.06;100.00;99981.56;5087345;28;20429;-56
2023/07/24 09:46:08;;;;;;;1.90;1.20;;;;;;;25.74;100.00;99975.50;5086744;28;20079;-57
2023/07/24 09:48:36;;;;;;;5.78;2.08;;;;;;;25.86;100.00;99970.47;5086683;28;20567;-58
2023/07/24 09:51:11;;;;;;;2.95;1.80;;;;;;;25.95;100.00;99947.69;5049159;28;1099383;-56
2023/07/24 09:53:48;;;;;;;3.90;1.70;;;;;;;26.04;100.00;99948.41;5087686;28;20487;-57
2023/07/24 09:56:17;;;;;;;4.72;2.20;;;;;;;26.36;100.00;99944.41;5087635;28;20210;-57
2023/07/24 09:58:44;;;;;;;3.15;2.00;;;;;;;26.31;100.00;99938.72;5078339;28;20040;-59
2023/07/24 10:01:11;;;;;;;4.07;2.25;;;;;;;26.42;100.00;99938.22;5092444;28;20448;-58
2023/07/24 10:03:40;;;;;;;3.90;2.10;;;;;;;26.41;100.00;99936.53;5108983;28;20048;-60
2023/07/24 10:06:14;;;;;;;6.78;2.50;;;;;;;26.88;100.00;99913.41;5091928;28;20048;-59
2023/07/24 10:08:41;;;;;;;4.85;2.05;;;;;;;26.66;98.74;99911.78;5088221;28;20468;-58
2023/07/24 10:11:10;;;;;;;7.68;2.65;;;;;;;26.40;98.99;99899.66;5087412;28;20135;-58
2023/07/24 10:13:38;;;;;;;4.38;2.15;;;;;;;26.79;94.61;99895.63;5087656;28;20621;-58
2023/07/24 10:16:06;;;;;;;6.15;2.30;;;;;;;26.93;95.52;99902.81;5087643;28;20044;-58
2023/07/24 10:18:35;;;;;;;6.07;2.90;;;;;;;26.96;87.52;99895.31;5087656;28;20044;-57
2023/07/24 10:21:06;;;;;;;6.20;3.03;;;;;;;26.79;88.14;99894.78;5086583;28;20051;-58
2023/07/24 10:23:40;;;;;;;4.68;2.65;;;;;;;27.48;84.01;99894.00;5087322;28;20135;-58
2023/07/24 10:26:07;;;;;;;7.55;2.72;;;;;;;27.10;83.21;99880.81;5086756;28;20052;-58
2023/07/24 10:28:39;;;;;;;3.83;2.45;;;;;;;27.53;82.63;99875.25;5087137;28;20040;-58
2023/07/24 10:31:22;;;;;;;5.13;2.47;;;;;;;27.36;82.42;99891.00;5087671;28;20052;-58
2023/07/24 10:33:51;;;;;;;3.35;2.15;;;;;;;27.43;79.29;99875.63;5106915;28;20067;-58
2023/07/24 10:36:19;;;;;;;4.65;1.98;;;;;;;27.45;80.61;99878.97;5091415;28;20047;-58
2023/07/24 10:38:47;;;;;;;4.38;2.40;;;;;;;27.45;77.09;99867.28;5086518;28;20380;-58
2023/07/24 10:41:14;;;;;;;5.78;3.00;;;;;;;27.37;76.64;99875.59;5086774;28;20060;-57
2023/07/24 10:43:42;;;;;;;4.95;2.90;;;;;;;27.09;74.31;99873.72;5090688;28;20234;-59
2023/07/24 10:46:14;;;;;;;6.38;3.88;;;;;;;26.82;74.57;99862.69;5089120;28;20052;-58
2023/07/24 10:48:47;;;;;;;9.00;3.25;;;;;;;27.13;74.80;99847.88;5087195;28;20044;-57
2023/07/24 10:51:14;;;;;;;6.18;3.50;;;;;;;27.57;74.22;99838.50;5086608;28;20075;-58
2023/07/24 10:53:46;;;;;;;7.72;3.42;;;;;;;27.83;72.38;99842.34;5078753;28;20061;-57
2023/07/24 10:56:13;;;;;;;5.28;3.42;;;;;;;28.32;71.82;99835.75;5085671;28;20129;-58
2023/07/24 10:58:39;;;;;;;6.80;3.53;;;;;;;27.80;71.07;99831.88;5080632;28;20109;-58
2023/07/24 11:01:08;;;;;;;6.55;3.30;;;;;;;28.22;69.80;99829.91;5086612;28;20365;-58
2023/07/24 11:03:41;;;;;;;7.63;3.22;;;;;;;28.00;73.12;99840.09;5088322;28;20084;-58
2023/07/24 11:06:19;;;;;;;9.82;3.80;;;;;;;26.92;77.03;99819.81;5083288;28;20482;-58
2023/07/24 11:08:59;;;;;;;6.55;3.53;;;;;;;26.79;80.35;99833.28;5079471;28;20045;-58
2023/07/24 11:11:33;;;;;;;5.82;3.20;;;;;;;27.20;78.86;99826.22;5086796;28;20054;-58
2023/07/24 11:14:02;;;;;;;6.45;3.85;;;;;;;27.27;77.20;99833.34;5097148;28;20487;-58
2023/07/24 11:16:31;;;;;;;4.82;3.20;;;;;;;26.88;78.02;99818.53;5081488;28;20453;-58
2023/07/24 11:18:58;;;;;;;9.02;3.80;;;;;;;26.95;78.63;99812.31;5079496;28;20108;-58
2023/07/24 11:21:24;;;;;;;7.03;2.80;;;;;;;27.03;80.03;99804.03;5085917;28;20044;-58